<?xml version="1.0" encoding="utf-8"?>
<gpx xmlns:xsi="http://www.w3.org/2001/XMLSchema-instance" xmlns:xsd="http://www.w3.org/2001/XMLSchema" version="1.1" creator="Shapelink.com" xmlns="http://www.topografix.com/GPX/1/1" xmlns:gpxtpx="http://www.garmin.com/xmlschemas/TrackPointExtension/v1">
  <metadata>
    <name>Övrigt 1.00 km, 2020-06-06</name>
    <desc></desc>
    <author><name>Marian Moron</name></author> 
    <time>2020-06-06T09:33:04Z</time>
  </metadata>
  <trk>
    <name>Övrigt 1.00 km, 2020-06-06</name>
    <trkseg>
      <trkpt lat="51.229832411041" lon="4.457608749116">
        <ele>16.6</ele>
        <time>2020-06-06T09:33:04Z</time>
      </trkpt>
      <trkpt lat="51.229775246483" lon="4.456890504105">
        <ele>6.8</ele>
        <time>2020-06-06T09:33:38Z</time>
      </trkpt>
      <trkpt lat="51.230182774461" lon="4.456736612421">
        <ele>16.6</ele>
        <time>2020-06-06T09:34:17Z</time>
      </trkpt>
      <trkpt lat="51.230631038473" lon="4.456720267716">
        <ele>22.4</ele>
        <time>2020-06-06T09:34:44Z</time>
      </trkpt>
      <trkpt lat="51.230952987252" lon="4.45630083744">
        <ele>30.2</ele>
        <time>2020-06-06T09:35:13Z</time>
      </trkpt>
      <trkpt lat="51.231085085996" lon="4.456121129504">
        <ele>27.4</ele>
        <time>2020-06-06T09:35:24Z</time>
      </trkpt>
      <trkpt lat="51.231176783982" lon="4.456149795602">
        <ele>22.8</ele>
        <time>2020-06-06T09:35:31Z</time>
      </trkpt>
      <trkpt lat="51.231234199997" lon="4.456057007969">
        <ele>20.6</ele>
        <time>2020-06-06T09:35:36Z</time>
      </trkpt>
      <trkpt lat="51.231162450933" lon="4.455344211193">
        <ele>18.4</ele>
        <time>2020-06-06T09:36:04Z</time>
      </trkpt>
      <trkpt lat="51.231147112056" lon="4.454613141875">
        <ele>18.8</ele>
        <time>2020-06-06T09:36:35Z</time>
      </trkpt>
      <trkpt lat="51.230892050839" lon="4.453995312026">
        <ele>16.4</ele>
        <time>2020-06-06T09:37:03Z</time>
      </trkpt>
      <trkpt lat="51.230849889882" lon="4.45376028355">
        <ele>16.6</ele>
        <time>2020-06-06T09:37:13Z</time>
      </trkpt>
      <trkpt lat="51.230817200472" lon="4.453540091037">
        <ele>16.6</ele>
        <time>2020-06-06T09:37:26Z</time>
      </trkpt>
      <trkpt lat="51.230728184694" lon="4.452824528234">
        <ele>12.8</ele>
        <time>2020-06-06T09:37:57Z</time>
      </trkpt>
      <trkpt lat="51.230603797298" lon="4.452125310136">
        <ele>4.8</ele>
        <time>2020-06-06T09:38:30Z</time>
      </trkpt>
      <trkpt lat="51.230443619189" lon="4.451442017648">
        <ele>1.6</ele>
        <time>2020-06-06T09:39:03Z</time>
      </trkpt>
      <trkpt lat="51.230442194266" lon="4.451388960221">
        <ele>0.4</ele>
        <time>2020-06-06T09:39:06Z</time>
      </trkpt>
      <trkpt lat="51.230450995261" lon="4.451376219733">
        <ele>1.4</ele>
        <time>2020-06-06T09:39:08Z</time>
      </trkpt>
      <trkpt lat="51.23001689666" lon="4.451590964011">
        <ele>0</ele>
        <time>2020-06-06T09:39:47Z</time>
      </trkpt>
      <trkpt lat="51.229797207061" lon="4.451551820538">
        <ele>3.4</ele>
        <time>2020-06-06T09:40:01Z</time>
      </trkpt>
      <trkpt lat="51.229734258992" lon="4.451468839728">
        <ele>6.4</ele>
        <time>2020-06-06T09:40:09Z</time>
      </trkpt>
      <trkpt lat="51.229577936557" lon="4.450807088723">
        <ele>3</ele>
        <time>2020-06-06T09:40:42Z</time>
      </trkpt>
      <trkpt lat="51.229429157832" lon="4.450135866171">
        <ele>0.8</ele>
        <time>2020-06-06T09:41:17Z</time>
      </trkpt>
      <trkpt lat="51.22940334158" lon="4.449763961268">
        <ele>0</ele>
        <time>2020-06-06T09:41:39Z</time>
      </trkpt>
      <trkpt lat="51.229239643073" lon="4.449188292376">
        <ele>0</ele>
        <time>2020-06-06T09:42:12Z</time>
      </trkpt>
      <trkpt lat="51.229039818577" lon="4.448621508298">
        <ele>0</ele>
        <time>2020-06-06T09:42:52Z</time>
      </trkpt>
      <trkpt lat="51.229011990669" lon="4.448582113368">
        <ele>0</ele>
        <time>2020-06-06T09:42:55Z</time>
      </trkpt>
      <trkpt lat="51.228965554943" lon="4.448640870487">
        <ele>0</ele>
        <time>2020-06-06T09:43:25Z</time>
      </trkpt>
      <trkpt lat="51.228665399104" lon="4.449178485553">
        <ele>0</ele>
        <time>2020-06-06T09:44:00Z</time>
      </trkpt>
      <trkpt lat="51.228489379204" lon="4.449357774394">
        <ele>0</ele>
        <time>2020-06-06T09:44:53Z</time>
      </trkpt>
      <trkpt lat="51.228489798299" lon="4.44935475691">
        <ele>0</ele>
        <time>2020-06-06T09:44:54Z</time>
      </trkpt>
      <trkpt lat="51.228501030045" lon="4.449304046415">
        <ele>0</ele>
        <time>2020-06-06T09:45:23Z</time>
      </trkpt>
    </trkseg>
  </trk>
</gpx>